createdAt,value
2023-01-22T00:01:41.544Z,19.39
2023-01-22T00:04:09.431Z,19.37
2023-01-22T00:06:35.862Z,19.33
2023-01-22T00:09:03.926Z,19.32
2023-01-22T00:11:30.673Z,19.30
2023-01-22T00:13:57.149Z,19.29
2023-01-22T00:16:23.658Z,19.28
2023-01-22T00:18:50.143Z,19.26
2023-01-22T00:21:16.619Z,19.25
2023-01-22T00:23:43.069Z,19.24
2023-01-22T00:26:13.665Z,19.23
2023-01-22T00:28:41.731Z,19.22
2023-01-22T00:31:09.711Z,19.20
2023-01-22T00:33:36.155Z,19.19
2023-01-22T00:36:09.798Z,19.17
2023-01-22T00:38:36.250Z,19.17
2023-01-22T00:41:03.526Z,19.16
2023-01-22T00:43:30.421Z,19.14
2023-01-22T00:45:56.882Z,19.13
2023-01-22T00:48:23.349Z,19.12
2023-01-22T00:50:49.877Z,19.12
2023-01-22T00:53:16.427Z,19.11
2023-01-22T00:56:01.714Z,19.11
2023-01-22T00:58:28.853Z,19.08
2023-01-22T01:00:55.604Z,19.10
2023-01-22T01:03:30.319Z,19.09
2023-01-22T01:05:58.332Z,19.07
2023-01-22T01:08:25.373Z,19.08
2023-01-22T01:10:55.905Z,19.09
2023-01-22T01:13:22.881Z,19.08
2023-01-22T01:15:49.819Z,19.07
2023-01-22T01:18:16.846Z,19.06
2023-01-22T01:20:43.307Z,19.06
2023-01-22T01:23:09.709Z,19.04
2023-01-22T01:25:39.377Z,19.06
2023-01-22T01:28:05.794Z,19.05
2023-01-22T01:30:32.303Z,19.03
2023-01-22T01:32:58.761Z,19.02
2023-01-22T01:35:25.312Z,19.02
2023-01-22T01:37:52.381Z,19.02
2023-01-22T01:40:19.059Z,19.03
2023-01-22T01:42:45.803Z,19.04
2023-01-22T01:45:21.358Z,19.02
2023-01-22T01:47:50.548Z,19.02
2023-01-22T01:50:19.312Z,19.02
2023-01-22T01:52:45.949Z,19.02
2023-01-22T01:55:12.752Z,19.00
2023-01-22T01:57:41.342Z,19.00
2023-01-22T02:00:10.627Z,19.01
2023-01-22T02:02:37.009Z,19.01
2023-01-22T02:05:04.551Z,19.00
2023-01-22T02:07:31.034Z,18.99
2023-01-22T02:09:57.785Z,18.99
2023-01-22T02:12:24.199Z,19.00
2023-01-22T02:14:50.753Z,18.98
2023-01-22T02:17:21.227Z,18.98
2023-01-22T02:19:48.265Z,18.97
2023-01-22T02:22:15.831Z,18.97
2023-01-22T02:24:42.228Z,18.98
2023-01-22T02:27:08.722Z,18.98
2023-01-22T02:29:35.191Z,18.96
2023-01-22T02:32:01.798Z,18.95
2023-01-22T02:34:28.323Z,18.93
2023-01-22T02:36:55.170Z,18.96
2023-01-22T02:39:21.722Z,18.94
2023-01-22T02:41:48.598Z,18.93
2023-01-22T02:44:14.977Z,18.92
2023-01-22T02:46:41.352Z,18.92
2023-01-22T02:49:07.751Z,18.93
2023-01-22T02:51:34.549Z,18.94
2023-01-22T02:54:01.000Z,18.92
2023-01-22T02:56:27.622Z,18.94
2023-01-22T02:58:54.216Z,18.92
2023-01-22T03:01:22.373Z,18.95
2023-01-22T03:03:53.440Z,18.96
2023-01-22T03:06:21.902Z,18.96
2023-01-22T03:08:58.748Z,18.96
2023-01-22T03:11:26.408Z,18.97
2023-01-22T03:14:12.019Z,18.98
2023-01-22T03:16:56.843Z,18.97
2023-01-22T03:19:42.354Z,18.97
2023-01-22T03:22:09.209Z,18.98
2023-01-22T03:24:35.646Z,18.97
2023-01-22T03:27:02.631Z,18.98
2023-01-22T03:29:29.038Z,18.97
2023-01-22T03:31:55.440Z,18.97
2023-01-22T03:34:22.520Z,18.96
2023-01-22T03:36:48.956Z,18.93
2023-01-22T03:39:15.388Z,18.94
2023-01-22T03:41:41.790Z,18.95
2023-01-22T03:44:11.848Z,18.93
2023-01-22T03:46:40.208Z,18.92
2023-01-22T03:49:07.566Z,18.92
2023-01-22T03:51:34.107Z,18.92
2023-01-22T03:54:00.629Z,18.92
2023-01-22T03:56:27.159Z,18.92
2023-01-22T03:58:53.871Z,18.91
2023-01-22T04:01:21.716Z,18.90
2023-01-22T04:03:48.497Z,18.88
2023-01-22T04:06:15.288Z,18.88
2023-01-22T04:08:43.154Z,18.86
2023-01-22T04:11:12.481Z,18.86
2023-01-22T04:13:39.917Z,18.84
2023-01-22T04:16:06.663Z,18.83
2023-01-22T04:18:33.116Z,18.83
2023-01-22T04:20:59.552Z,18.83
2023-01-22T04:23:26.038Z,18.81
2023-01-22T04:25:52.592Z,18.82
2023-01-22T04:28:19.316Z,18.82
2023-01-22T04:30:46.441Z,18.80
2023-01-22T04:33:13.244Z,18.81
2023-01-22T04:35:39.757Z,18.81
2023-01-22T04:38:06.965Z,18.80
2023-01-22T04:40:33.737Z,18.79
2023-01-22T04:43:00.945Z,18.78
2023-01-22T04:45:27.398Z,18.79
2023-01-22T04:47:53.746Z,18.79
2023-01-22T04:50:21.372Z,18.78
2023-01-22T04:52:49.727Z,18.79
2023-01-22T04:55:16.542Z,18.78
2023-01-22T04:57:43.005Z,18.79
2023-01-22T05:00:10.632Z,18.78
2023-01-22T05:02:37.799Z,18.79
2023-01-22T05:05:04.770Z,18.78
2023-01-22T05:07:31.226Z,18.78
2023-01-22T05:09:57.628Z,18.76
2023-01-22T05:12:24.091Z,18.79
2023-01-22T05:14:50.518Z,18.77
2023-01-22T05:17:17.334Z,18.77
2023-01-22T05:19:43.761Z,18.78
2023-01-22T05:22:10.112Z,18.77
2023-01-22T05:24:36.559Z,18.78
2023-01-22T05:27:03.090Z,18.77
2023-01-22T05:29:29.509Z,18.76
2023-01-22T05:31:56.819Z,18.77
2023-01-22T05:34:23.885Z,18.77
2023-01-22T05:36:50.374Z,18.76
2023-01-22T05:39:17.140Z,18.75
2023-01-22T05:41:44.156Z,18.74
2023-01-22T05:44:11.501Z,18.76
2023-01-22T05:46:38.242Z,18.76
2023-01-22T05:49:04.966Z,18.76
2023-01-22T05:51:32.523Z,18.78
2023-01-22T05:53:59.076Z,18.78
2023-01-22T05:56:25.525Z,18.76
2023-01-22T05:58:51.974Z,18.77
2023-01-22T06:01:18.399Z,18.77
2023-01-22T06:03:44.938Z,18.78
2023-01-22T06:06:12.633Z,18.77
2023-01-22T06:08:39.215Z,18.76
2023-01-22T06:11:08.330Z,18.76
2023-01-22T06:13:35.208Z,18.76
2023-01-22T06:16:01.934Z,18.76
2023-01-22T06:18:28.430Z,18.78
2023-01-22T06:20:58.657Z,18.79
2023-01-22T06:23:27.063Z,18.78
2023-01-22T06:25:54.148Z,18.79
2023-01-22T06:28:21.093Z,18.80
2023-01-22T06:30:47.620Z,18.81
2023-01-22T06:33:14.505Z,18.81
2023-01-22T06:35:41.282Z,18.80
2023-01-22T06:38:07.926Z,18.79
2023-01-22T06:40:34.706Z,18.78
2023-01-22T06:43:05.133Z,18.78
2023-01-22T06:45:31.569Z,18.77
2023-01-22T06:47:58.040Z,18.77
2023-01-22T06:50:24.470Z,18.76
2023-01-22T06:52:50.981Z,18.77
2023-01-22T06:55:17.369Z,18.77
2023-01-22T06:57:43.790Z,18.78
2023-01-22T07:00:11.126Z,18.78
2023-01-22T07:02:37.494Z,18.81
2023-01-22T07:05:04.071Z,18.80
2023-01-22T07:07:30.489Z,18.80
2023-01-22T07:09:56.873Z,18.80
2023-01-22T07:12:23.356Z,18.80
2023-01-22T07:14:49.785Z,18.79
2023-01-22T07:17:16.126Z,18.80
2023-01-22T07:19:42.588Z,18.78
2023-01-22T07:22:09.059Z,18.77
2023-01-22T07:24:35.462Z,18.78
2023-01-22T07:27:02.865Z,18.77
2023-01-22T07:29:29.323Z,18.76
2023-01-22T07:31:55.778Z,18.76
2023-01-22T07:34:22.492Z,18.74
2023-01-22T07:36:49.011Z,18.72
2023-01-22T07:39:15.610Z,18.72
2023-01-22T07:41:41.999Z,18.69
2023-01-22T07:44:08.534Z,18.69
2023-01-22T07:46:35.355Z,18.67
2023-01-22T07:49:01.822Z,18.66
2023-01-22T07:51:28.267Z,18.66
2023-01-22T07:53:55.039Z,18.68
2023-01-22T07:56:21.535Z,18.68
2023-01-22T07:58:47.953Z,18.68
2023-01-22T08:01:17.545Z,18.70
2023-01-22T08:03:45.071Z,18.71
2023-01-22T08:06:12.705Z,18.72
2023-01-22T08:08:39.103Z,18.72
2023-01-22T08:11:05.500Z,18.72
2023-01-22T08:13:31.876Z,18.72
2023-01-22T08:15:58.368Z,18.75
2023-01-22T08:18:24.769Z,18.77
2023-01-22T08:20:51.371Z,18.78
2023-01-22T08:23:17.794Z,18.78
2023-01-22T08:25:44.189Z,18.78
2023-01-22T08:28:10.551Z,18.79
2023-01-22T08:30:55.549Z,18.78
2023-01-22T08:33:22.600Z,18.80
2023-01-22T08:35:50.091Z,18.80
2023-01-22T08:38:16.632Z,18.80
2023-01-22T08:40:43.162Z,18.82
2023-01-22T08:43:09.635Z,18.84
2023-01-22T08:45:36.089Z,18.84
2023-01-22T08:48:02.668Z,18.87
2023-01-22T08:50:29.649Z,18.88
2023-01-22T08:52:56.860Z,18.91
2023-01-22T08:55:23.433Z,18.89
2023-01-22T08:57:56.667Z,18.79
2023-01-22T09:00:23.621Z,18.71
2023-01-22T09:02:50.142Z,18.68
2023-01-22T09:05:17.037Z,18.71
2023-01-22T09:07:43.483Z,18.70
2023-01-22T09:10:12.291Z,18.79
2023-01-22T09:12:39.630Z,18.84
2023-01-22T09:15:06.966Z,18.88
2023-01-22T09:17:33.424Z,18.92
2023-01-22T09:19:59.798Z,18.96
2023-01-22T09:22:26.159Z,18.98
2023-01-22T09:24:52.582Z,19.02
2023-01-22T09:27:18.946Z,19.04
2023-01-22T09:29:45.315Z,19.06
2023-01-22T09:32:11.829Z,19.10
2023-01-22T09:34:38.261Z,19.11
2023-01-22T09:37:07.882Z,19.13
2023-01-22T09:39:34.295Z,19.15
2023-01-22T09:42:03.099Z,19.18
2023-01-22T09:44:38.263Z,19.20
2023-01-22T09:47:06.901Z,19.22
2023-01-22T09:49:37.347Z,19.24
2023-01-22T09:52:05.393Z,19.25
2023-01-22T09:54:32.828Z,19.27
2023-01-22T09:57:01.841Z,19.27
2023-01-22T09:59:32.823Z,19.30
2023-01-22T10:02:02.140Z,19.31
2023-01-22T10:04:31.593Z,19.31
2023-01-22T10:07:00.559Z,19.33
2023-01-22T10:09:30.050Z,19.34
2023-01-22T10:11:57.013Z,19.36
2023-01-22T10:14:26.337Z,19.37
2023-01-22T10:16:52.851Z,19.37
2023-01-22T10:19:19.240Z,19.38
2023-01-22T10:21:47.432Z,19.38
2023-01-22T10:24:13.847Z,19.41
2023-01-22T10:26:43.267Z,19.41
2023-01-22T10:29:14.047Z,19.42
2023-01-22T10:31:49.199Z,19.42
2023-01-22T10:34:20.411Z,19.44
2023-01-22T10:36:52.317Z,19.45
2023-01-22T10:39:19.677Z,19.45
2023-01-22T10:41:47.220Z,19.45
2023-01-22T10:44:23.370Z,19.47
2023-01-22T10:46:50.923Z,19.46
2023-01-22T10:49:17.438Z,19.47
2023-01-22T10:51:45.739Z,19.49
2023-01-22T10:54:21.216Z,19.50
2023-01-22T10:56:48.345Z,19.51
2023-01-22T10:59:23.501Z,19.50
2023-01-22T11:01:56.245Z,19.51
2023-01-22T11:04:24.803Z,19.51
2023-01-22T11:06:53.917Z,19.52
2023-01-22T11:09:24.596Z,19.52
2023-01-22T11:11:56.350Z,19.52
2023-01-22T11:14:26.222Z,19.54
2023-01-22T11:16:54.159Z,19.54
2023-01-22T11:19:37.209Z,19.54
2023-01-22T11:22:06.429Z,19.56
2023-01-22T11:24:42.823Z,19.54
2023-01-22T11:27:32.824Z,19.55
2023-01-22T11:30:14.812Z,19.56
2023-01-22T11:32:57.765Z,19.57
2023-01-22T11:35:44.591Z,19.57
2023-01-22T11:38:34.954Z,19.55
2023-01-22T11:41:20.211Z,19.57
2023-01-22T11:43:46.789Z,19.59
2023-01-22T11:46:25.244Z,19.58
2023-01-22T11:48:57.394Z,19.58
2023-01-22T11:51:36.624Z,19.59
2023-01-22T11:54:22.597Z,19.61
2023-01-22T11:56:55.356Z,19.59
2023-01-22T11:59:37.283Z,19.63
2023-01-22T12:02:03.792Z,19.61
2023-01-22T12:04:33.198Z,19.63
2023-01-22T12:07:08.955Z,19.63
2023-01-22T12:09:43.018Z,19.63
2023-01-22T12:12:19.301Z,19.64
2023-01-22T12:14:55.041Z,19.64
2023-01-22T12:17:40.172Z,19.65
2023-01-22T12:20:07.055Z,19.65
2023-01-22T12:22:59.873Z,19.67
2023-01-22T12:25:34.709Z,19.66
2023-01-22T12:28:08.901Z,19.66
2023-01-22T12:30:38.366Z,19.67
2023-01-22T12:33:05.567Z,19.68
2023-01-22T12:35:32.347Z,19.68
2023-01-22T12:38:15.342Z,19.68
2023-01-22T12:40:44.563Z,19.69
2023-01-22T12:43:11.176Z,19.68
2023-01-22T12:45:43.515Z,19.69
2023-01-22T12:48:24.352Z,19.69
2023-01-22T12:50:51.841Z,19.70
2023-01-22T12:53:28.869Z,19.70
2023-01-22T12:56:09.088Z,19.70
2023-01-22T12:58:37.221Z,19.69
2023-01-22T13:01:05.806Z,19.70
2023-01-22T13:03:33.465Z,19.71
2023-01-22T13:06:01.002Z,19.70
2023-01-22T13:08:35.488Z,19.69
2023-01-22T13:11:03.353Z,19.72
2023-01-22T13:13:34.963Z,19.72
2023-01-22T13:16:06.063Z,19.72
2023-01-22T13:18:41.544Z,19.73
2023-01-22T13:21:10.055Z,19.72
2023-01-22T13:23:44.077Z,19.72
2023-01-22T13:26:18.561Z,19.73
2023-01-22T13:29:08.366Z,19.72
2023-01-22T13:31:34.912Z,19.73
2023-01-22T13:34:08.951Z,19.74
2023-01-22T13:36:43.876Z,19.73
2023-01-22T13:39:30.322Z,19.73
2023-01-22T13:42:05.633Z,19.74
2023-01-22T13:44:34.079Z,19.74
2023-01-22T13:47:00.692Z,19.74
2023-01-22T13:49:28.597Z,19.73
2023-01-22T13:51:56.827Z,19.76
2023-01-22T13:54:23.275Z,19.75
2023-01-22T13:56:49.861Z,19.75
2023-01-22T13:59:27.629Z,19.76
2023-01-22T14:01:54.584Z,19.76
2023-01-22T14:04:28.770Z,19.75
2023-01-22T14:06:55.289Z,19.77
2023-01-22T14:09:25.577Z,19.78
2023-01-22T14:11:52.228Z,19.78
2023-01-22T14:14:19.628Z,19.79
2023-01-22T14:16:46.253Z,19.79
2023-01-22T14:19:16.284Z,19.77
2023-01-22T14:21:43.101Z,19.80
2023-01-22T14:24:09.721Z,19.80
2023-01-22T14:26:36.445Z,19.79
2023-01-22T14:29:02.997Z,19.80
2023-01-22T14:31:29.535Z,19.80
2023-01-22T14:33:55.958Z,19.80
2023-01-22T14:36:22.348Z,19.79
2023-01-22T14:38:51.412Z,19.79
2023-01-22T14:41:17.916Z,19.80
2023-01-22T14:43:44.359Z,19.80
2023-01-22T14:46:10.854Z,19.80
2023-01-22T14:48:38.480Z,19.79
2023-01-22T14:51:09.433Z,19.80
2023-01-22T14:53:35.849Z,19.79
2023-01-22T14:56:02.325Z,19.80
2023-01-22T14:58:28.665Z,19.78
2023-01-22T15:00:55.098Z,19.79
2023-01-22T15:03:21.440Z,19.78
2023-01-22T15:05:50.825Z,19.78
2023-01-22T15:08:17.323Z,19.78
2023-01-22T15:10:46.354Z,19.77
2023-01-22T15:13:12.797Z,19.78
2023-01-22T15:15:39.246Z,19.77
2023-01-22T15:18:05.607Z,19.77
2023-01-22T15:20:32.140Z,19.78
2023-01-22T15:23:00.927Z,19.78
2023-01-22T15:25:27.430Z,19.77
2023-01-22T15:27:53.839Z,19.77
2023-01-22T15:30:20.617Z,19.76
2023-01-22T15:32:47.110Z,19.76
2023-01-22T15:35:13.596Z,19.77
2023-01-22T15:37:39.977Z,19.77
2023-01-22T15:40:06.808Z,19.77
2023-01-22T15:42:35.627Z,19.77
2023-01-22T15:45:03.307Z,19.76
2023-01-22T15:47:29.716Z,19.78
2023-01-22T15:49:56.122Z,19.77
2023-01-22T15:52:22.491Z,19.77
2023-01-22T15:54:53.860Z,19.78
2023-01-22T15:57:20.596Z,19.76
2023-01-22T15:59:47.250Z,19.77
2023-01-22T16:02:13.740Z,19.77
2023-01-22T16:04:40.218Z,19.77
2023-01-22T16:07:06.601Z,19.77
2023-01-22T16:09:33.515Z,19.77
2023-01-22T16:12:00.079Z,19.77
2023-01-22T16:14:28.434Z,19.77
2023-01-22T16:16:55.057Z,19.77
2023-01-22T16:19:21.437Z,19.77
2023-01-22T16:21:48.089Z,19.78
2023-01-22T16:24:14.530Z,19.77
2023-01-22T16:26:40.947Z,19.77
2023-01-22T16:29:07.444Z,19.77
2023-01-22T16:31:34.915Z,19.77
2023-01-22T16:34:12.545Z,19.78
2023-01-22T16:36:39.625Z,19.78
2023-01-22T16:39:06.531Z,19.76
2023-01-22T16:41:34.284Z,19.78
2023-01-22T16:44:15.763Z,19.77
2023-01-22T16:46:43.361Z,19.77
2023-01-22T16:49:17.890Z,19.77
2023-01-22T16:51:59.327Z,19.77
2023-01-22T16:54:30.394Z,19.76
2023-01-22T16:56:57.787Z,19.77
2023-01-22T16:59:24.767Z,19.77
2023-01-22T17:01:51.248Z,19.78
2023-01-22T17:04:17.696Z,19.77
2023-01-22T17:06:45.662Z,19.78
2023-01-22T17:09:13.256Z,19.78
2023-01-22T17:11:40.065Z,19.79
2023-01-22T17:14:07.943Z,19.78
2023-01-22T17:16:34.493Z,19.79
2023-01-22T17:19:01.013Z,19.78
2023-01-22T17:21:29.009Z,19.78
2023-01-22T17:23:55.564Z,19.79
2023-01-22T17:26:22.033Z,19.77
2023-01-22T17:28:48.518Z,19.78
2023-01-22T17:31:16.660Z,19.79
2023-01-22T17:33:43.573Z,19.79
2023-01-22T17:36:11.201Z,19.79
2023-01-22T17:38:38.871Z,19.80
2023-01-22T17:41:06.868Z,19.78
2023-01-22T17:43:34.081Z,19.79
2023-01-22T17:46:00.848Z,19.78
2023-01-22T17:48:28.153Z,19.79
2023-01-22T17:50:54.706Z,19.79
2023-01-22T17:53:21.206Z,19.79
2023-01-22T17:55:47.600Z,19.79
2023-01-22T17:58:14.035Z,19.77
2023-01-22T18:00:40.542Z,19.79
2023-01-22T18:03:07.026Z,19.78
2023-01-22T18:05:33.725Z,19.79
2023-01-22T18:08:00.253Z,19.79
2023-01-22T18:10:27.738Z,19.79
2023-01-22T18:12:54.072Z,19.78
2023-01-22T18:15:21.049Z,19.79
2023-01-22T18:17:49.452Z,19.79
2023-01-22T18:20:16.209Z,19.79
2023-01-22T18:22:42.616Z,19.78
2023-01-22T18:25:09.173Z,19.79
2023-01-22T18:27:35.556Z,19.78
2023-01-22T18:30:01.953Z,19.79
2023-01-22T18:32:28.822Z,19.78
2023-01-22T18:34:55.473Z,19.78
2023-01-22T18:37:21.879Z,19.79
2023-01-22T18:39:48.342Z,19.79
2023-01-22T18:42:14.736Z,19.78
2023-01-22T18:44:41.087Z,19.79
2023-01-22T18:47:11.196Z,19.78
2023-01-22T18:49:37.780Z,19.78
2023-01-22T18:52:04.289Z,19.80
2023-01-22T18:54:30.801Z,19.79
2023-01-22T18:56:57.325Z,19.79
2023-01-22T18:59:23.653Z,19.80
2023-01-22T19:01:54.241Z,19.79
2023-01-22T19:04:21.890Z,19.79
2023-01-22T19:06:52.873Z,19.80
2023-01-22T19:09:19.695Z,19.80
2023-01-22T19:11:51.994Z,19.80
2023-01-22T19:14:19.791Z,19.81
2023-01-22T19:16:48.484Z,19.81
2023-01-22T19:19:16.388Z,19.81
2023-01-22T19:21:46.919Z,19.83
2023-01-22T19:24:15.325Z,19.82
2023-01-22T19:26:42.469Z,19.81
2023-01-22T19:29:13.493Z,19.80
2023-01-22T19:31:41.731Z,19.81
2023-01-22T19:34:09.081Z,19.82
2023-01-22T19:36:38.341Z,19.82
2023-01-22T19:39:06.815Z,19.83
2023-01-22T19:41:33.461Z,19.82
2023-01-22T19:44:01.116Z,19.81
2023-01-22T19:46:28.239Z,19.81
2023-01-22T19:48:54.969Z,19.82
2023-01-22T19:51:22.262Z,19.83
2023-01-22T19:53:49.065Z,19.81
2023-01-22T19:56:21.068Z,19.83
2023-01-22T19:58:48.774Z,19.83
2023-01-22T20:01:16.273Z,19.82
2023-01-22T20:03:42.769Z,19.81
2023-01-22T20:06:10.149Z,19.82
2023-01-22T20:08:36.869Z,19.84
2023-01-22T20:11:04.097Z,19.83
2023-01-22T20:13:30.930Z,19.83
2023-01-22T20:15:57.575Z,19.82
2023-01-22T20:18:24.054Z,19.83
2023-01-22T20:20:57.594Z,19.82
2023-01-22T20:23:24.551Z,19.83
2023-01-22T20:25:51.591Z,19.83
2023-01-22T20:28:18.475Z,19.83
2023-01-22T20:30:45.385Z,19.84
2023-01-22T20:33:11.970Z,19.83
2023-01-22T20:35:44.312Z,19.85
2023-01-22T20:38:10.710Z,19.84
2023-01-22T20:40:39.021Z,19.83
2023-01-22T20:43:05.951Z,19.83
2023-01-22T20:45:32.399Z,19.85
2023-01-22T20:47:58.837Z,19.84
2023-01-22T20:50:25.271Z,19.84
2023-01-22T20:52:53.188Z,19.84
2023-01-22T20:55:20.113Z,19.84
2023-01-22T20:57:46.665Z,19.84
2023-01-22T21:00:13.408Z,19.85
2023-01-22T21:02:39.897Z,19.84
2023-01-22T21:05:06.715Z,19.85
2023-01-22T21:07:33.417Z,19.85
2023-01-22T21:09:59.911Z,19.85
2023-01-22T21:12:27.277Z,19.85
2023-01-22T21:14:55.104Z,19.85
2023-01-22T21:17:21.749Z,19.84
2023-01-22T21:19:48.374Z,19.85
2023-01-22T21:22:17.263Z,19.86
2023-01-22T21:24:43.914Z,19.83
2023-01-22T21:27:10.538Z,19.85
2023-01-22T21:29:37.464Z,19.85
2023-01-22T21:32:06.676Z,19.85
2023-01-22T21:34:33.491Z,19.86
2023-01-22T21:37:00.036Z,19.86
2023-01-22T21:39:30.112Z,19.85
2023-01-22T21:42:19.835Z,19.87
2023-01-22T21:45:04.840Z,19.85
2023-01-22T21:47:31.302Z,19.84
2023-01-22T21:49:57.716Z,19.86
2023-01-22T21:52:24.236Z,19.85
2023-01-22T21:54:50.752Z,19.86
2023-01-22T21:57:17.274Z,19.86
2023-01-22T21:59:43.929Z,19.87
2023-01-22T22:02:13.450Z,19.86
2023-01-22T22:04:39.878Z,19.86
2023-01-22T22:07:06.470Z,19.85
2023-01-22T22:09:32.997Z,19.86
2023-01-22T22:12:00.166Z,19.85
2023-01-22T22:14:26.644Z,19.85
2023-01-22T22:16:53.383Z,19.85
2023-01-22T22:19:20.479Z,19.86
2023-01-22T22:21:47.239Z,19.86
2023-01-22T22:24:14.351Z,19.85
2023-01-22T22:26:40.924Z,19.85
2023-01-22T22:29:08.103Z,19.86
2023-01-22T22:31:34.901Z,19.85
2023-01-22T22:34:01.354Z,19.85
2023-01-22T22:36:29.115Z,19.86
2023-01-22T22:38:55.878Z,19.85
2023-01-22T22:41:26.637Z,19.85
2023-01-22T22:43:54.255Z,19.85
2023-01-22T22:46:22.252Z,19.84
2023-01-22T22:48:48.873Z,19.85
2023-01-22T22:51:20.330Z,19.85
2023-01-22T22:53:47.277Z,19.84
2023-01-22T22:56:14.465Z,19.85
2023-01-22T22:58:40.942Z,19.82
2023-01-22T23:01:07.398Z,19.80
2023-01-22T23:03:35.034Z,19.79
2023-01-22T23:06:10.398Z,19.77
2023-01-22T23:08:37.229Z,19.73
2023-01-22T23:11:07.791Z,19.69
2023-01-22T23:13:34.895Z,19.66
2023-01-22T23:16:02.256Z,19.62
2023-01-22T23:18:29.237Z,19.58
2023-01-22T23:20:55.748Z,19.56
2023-01-22T23:23:22.181Z,19.53
2023-01-22T23:25:48.542Z,19.52
2023-01-22T23:28:15.139Z,19.50
2023-01-22T23:30:41.672Z,19.49
2023-01-22T23:33:08.137Z,19.46
2023-01-22T23:35:34.643Z,19.45
2023-01-22T23:38:01.151Z,19.44
2023-01-22T23:40:27.556Z,19.42
2023-01-22T23:42:53.914Z,19.40
2023-01-22T23:45:20.425Z,19.38
2023-01-22T23:47:46.871Z,19.38
2023-01-22T23:50:13.425Z,19.36
2023-01-22T23:52:39.816Z,19.34
2023-01-22T23:55:06.614Z,19.32
2023-01-22T23:57:33.058Z,19.31
